Time;durP1;ratioP1;P1;durP2;ratioP2;P2;SDS_P1;SDS_P2;PMS_P1;PMS_P2;Temp;Humidity;BMP_temperature;BMP_pressure;BME280_temperature;BME280_humidity;BME280_pressure;Samples;Min_cycle;Max_cycle;Signal;HPM_P1;HPM_P2
2023/04/27 00:01:49;;;;;;;7.10;3.47;;;;;;;-148.88;100.00;77136.34;5036961;28;20400;-77
2023/04/27 00:04:15;;;;;;;10.60;3.00;;;;;;;-148.88;100.00;77126.19;5055407;28;20108;-77
2023/04/27 00:06:41;;;;;;;9.65;3.60;;;;;;;-148.88;100.00;77140.41;5056065;28;20479;-78
2023/04/27 00:09:06;;;;;;;9.57;3.15;;;;;;;-148.88;100.00;77146.50;5056599;28;20091;-78
2023/04/27 00:11:31;;;;;;;7.93;3.08;;;;;;;-148.88;100.00;77144.47;5055855;28;20111;-78
2023/04/27 00:13:57;;;;;;;6.72;3.35;;;;;;;-148.88;100.00;77144.47;5055622;28;20024;-78
2023/04/27 00:16:22;;;;;;;5.85;3.10;;;;;;;-148.88;100.00;77162.75;5056152;28;20036;-78
2023/04/27 00:18:47;;;;;;;11.25;3.47;;;;;;;-148.88;100.00;77158.69;5056103;28;20028;-78
2023/04/27 00:21:13;;;;;;;7.55;3.10;;;;;;;-148.88;100.00;77158.69;5056113;28;20021;-78
2023/04/27 00:23:38;;;;;;;9.85;3.28;;;;;;;-148.88;100.00;77158.69;5056743;28;20029;-78
2023/04/27 00:26:03;;;;;;;8.05;3.13;;;;;;;-148.88;100.00;77168.84;5055948;28;20553;-78
2023/04/27 00:28:28;;;;;;;6.68;3.63;;;;;;;-148.88;100.00;77183.06;5055897;28;20021;-78
2023/04/27 00:30:54;;;;;;;6.72;3.05;;;;;;;-148.88;100.00;77174.94;5056367;28;20029;-78
2023/04/27 00:33:20;;;;;;;9.63;2.60;;;;;;;-148.88;100.00;77174.94;5056440;28;20020;-78
2023/04/27 00:35:45;;;;;;;11.15;3.58;;;;;;;-148.88;100.00;77183.06;5037628;28;20027;-78
2023/04/27 00:38:11;;;;;;;10.82;2.75;;;;;;;-148.88;100.00;77187.13;5056222;28;20064;-78
2023/04/27 00:40:37;;;;;;;6.60;2.88;;;;;;;-148.88;100.00;77191.19;5038430;28;20025;-78
2023/04/27 00:43:03;;;;;;;8.77;2.97;;;;;;;-148.88;100.00;77195.25;5056521;28;20028;-78
2023/04/27 00:45:28;;;;;;;8.48;2.85;;;;;;;-148.88;100.00;77203.41;5056448;28;20025;-78
2023/04/27 00:47:54;;;;;;;5.97;3.00;;;;;;;-148.88;100.00;77203.41;5056532;28;20108;-78
2023/04/27 00:50:27;;;;;;;6.47;2.83;;;;;;;-148.88;100.00;77207.47;5038357;28;20074;-78
2023/04/27 00:52:52;;;;;;;9.90;3.80;;;;;;;-148.88;100.00;77215.59;5038733;28;20017;-78
2023/04/27 00:55:18;;;;;;;6.22;3.05;;;;;;;-148.88;100.00;77219.66;5038517;28;20498;-78
2023/04/27 00:57:43;;;;;;;6.03;2.78;;;;;;;-148.88;100.00;77215.59;5038488;28;20079;-78
2023/04/27 01:00:10;;;;;;;5.43;2.88;;;;;;;-148.88;100.00;77223.72;5056221;28;20027;-78
2023/04/27 01:02:35;;;;;;;10.70;3.40;;;;;;;-148.88;100.00;77231.84;5038236;28;20028;-78
2023/04/27 01:05:02;;;;;;;7.07;2.92;;;;;;;-148.88;100.00;77235.91;5058706;28;20025;-78
2023/04/27 01:07:28;;;;;;;10.70;2.85;;;;;;;-148.88;100.00;77229.81;5060438;28;20021;-78
2023/04/27 01:09:53;;;;;;;7.97;2.50;;;;;;;-148.88;100.00;77248.09;5060317;28;20107;-78
2023/04/27 01:12:19;;;;;;;9.93;3.50;;;;;;;-148.88;99.29;77250.13;5042442;28;20028;-78
2023/04/27 01:14:44;;;;;;;4.32;2.10;;;;;;;-148.88;99.05;77252.16;5042870;28;20044;-78
2023/04/27 01:17:10;;;;;;;7.07;2.63;;;;;;;-148.88;98.80;77252.16;5060879;28;20032;-78
2023/04/27 01:19:35;;;;;;;7.22;2.17;;;;;;;-148.88;98.47;77264.34;5060615;28;20134;-78
2023/04/27 01:22:01;;;;;;;5.20;2.05;;;;;;;-148.88;98.25;77268.41;5042539;28;20017;-78
2023/04/27 01:24:26;;;;;;;5.78;2.25;;;;;;;-148.88;97.90;77268.41;5060504;28;20032;-77
2023/04/27 01:26:52;;;;;;;5.60;2.10;;;;;;;-148.88;97.63;77268.41;5061060;28;20376;-78
2023/04/27 01:29:18;;;;;;;7.60;2.05;;;;;;;-148.88;97.29;77276.53;5041809;28;20035;-78
2023/04/27 01:31:43;;;;;;;4.93;2.13;;;;;;;-148.88;98.00;77282.63;5060245;28;20112;-78
2023/04/27 01:34:09;;;;;;;8.85;2.30;;;;;;;-148.88;98.04;77282.63;5041868;28;20024;-78
2023/04/27 01:36:35;;;;;;;3.75;2.13;;;;;;;-148.88;98.21;77288.72;5059671;28;20021;-78
2023/04/27 01:39:00;;;;;;;2.85;1.70;;;;;;;-148.88;98.43;77300.94;5041137;28;20032;-78
2023/04/27 01:41:25;;;;;;;3.10;1.92;;;;;;;-148.88;97.75;77300.94;5080271;22;20047;-78
2023/04/27 01:43:51;;;;;;;3.75;2.35;;;;;;;-148.88;97.88;77302.97;5084341;28;20052;-78
2023/04/27 01:46:16;;;;;;;5.85;2.10;;;;;;;-148.88;98.12;77305.00;5083778;28;20024;-78
2023/04/27 01:48:41;;;;;;;7.10;1.95;;;;;;;-148.88;97.66;77317.19;5083482;28;20471;-78
2023/04/27 01:51:07;;;;;;;3.70;1.70;;;;;;;-148.88;97.37;77321.25;5085006;28;20102;-78
2023/04/27 01:53:35;;;;;;;5.07;2.13;;;;;;;-148.88;97.26;77313.13;5086227;22;20052;-81
2023/04/27 01:56:00;;;;;;;9.20;2.10;;;;;;;-148.88;96.93;77309.06;5037589;28;20044;-85
2023/04/27 01:58:26;;;;;;;7.22;2.05;;;;;;;-148.88;97.10;77325.31;5038122;28;20357;-85
2023/04/27 02:00:51;;;;;;;8.63;2.13;;;;;;;-148.88;97.25;77321.25;5037927;28;20065;-85
2023/04/27 02:03:16;;;;;;;5.47;2.28;;;;;;;-148.88;97.21;77321.25;5055840;28;20079;-85
2023/04/27 02:05:42;;;;;;;5.68;2.08;;;;;;;-148.88;97.47;77341.56;5055574;28;20024;-85
2023/04/27 02:08:07;;;;;;;5.88;2.38;;;;;;;-148.88;97.95;77341.56;5056739;28;20025;-84
2023/04/27 02:10:34;;;;;;;6.60;2.30;;;;;;;-148.88;97.10;77351.72;5056636;28;20049;-86
2023/04/27 02:12:59;;;;;;;9.00;2.92;;;;;;;-148.88;98.00;77341.56;5037485;28;20028;-85
2023/04/27 02:15:24;;;;;;;7.18;2.58;;;;;;;-148.88;98.22;77337.50;5054969;28;20107;-84
2023/04/27 02:17:50;;;;;;;9.23;2.22;;;;;;;-148.88;97.92;77349.69;5037561;28;20152;-85
2023/04/27 02:20:15;;;;;;;4.55;2.53;;;;;;;-148.88;99.23;77347.66;5055682;28;20424;-84
2023/04/27 02:22:44;;;;;;;7.25;2.42;;;;;;;-148.88;99.35;77349.69;5055193;28;20031;-84
2023/04/27 02:25:10;;;;;;;6.20;2.63;;;;;;;-148.88;99.68;77349.69;5054969;28;20028;-85
2023/04/27 02:27:40;;;;;;;7.93;2.67;;;;;;;-148.88;100.00;77351.72;5037041;28;20107;-83
2023/04/27 02:30:09;;;;;;;5.50;2.55;;;;;;;-148.88;100.00;77357.81;5054906;28;20085;-84
2023/04/27 02:32:34;;;;;;;6.05;2.35;;;;;;;-148.88;100.00;77372.03;5055229;28;20021;-85
2023/04/27 02:35:00;;;;;;;4.68;2.30;;;;;;;-148.88;100.00;77361.88;5036673;28;20340;-84
2023/04/27 02:37:25;;;;;;;7.32;2.80;;;;;;;-148.88;100.00;77380.19;5054850;28;20151;-85
2023/04/27 02:39:51;;;;;;;8.57;2.47;;;;;;;-148.88;100.00;77367.97;5055163;28;20060;-85
2023/04/27 02:42:16;;;;;;;9.85;2.80;;;;;;;-148.88;100.00;77386.28;5054941;28;20028;-84
2023/04/27 02:44:41;;;;;;;9.38;2.90;;;;;;;-148.88;100.00;77386.28;5036639;28;20021;-85
2023/04/27 02:47:07;;;;;;;5.40;2.80;;;;;;;-148.88;100.00;77382.22;5036788;28;20021;-84
2023/04/27 02:49:32;;;;;;;7.60;2.70;;;;;;;-148.88;100.00;77382.22;5036973;28;20021;-84
2023/04/27 02:51:57;;;;;;;9.50;3.38;;;;;;;-148.88;100.00;77374.09;5036682;28;20035;-84
2023/04/27 02:54:22;;;;;;;7.93;2.78;;;;;;;-148.88;100.00;77365.94;5036468;28;20039;-85
2023/04/27 02:56:48;;;;;;;6.78;3.45;;;;;;;-148.88;100.00;77367.97;5036644;28;20186;-84
2023/04/27 02:59:13;;;;;;;6.07;2.90;;;;;;;-148.88;100.00;77370.00;5054608;28;20028;-84
2023/04/27 03:01:38;;;;;;;8.32;3.13;;;;;;;-148.88;100.00;77370.00;5036900;28;20017;-84
2023/04/27 03:04:04;;;;;;;7.75;2.65;;;;;;;-148.88;100.00;77370.00;5036643;28;20043;-84
2023/04/27 03:06:29;;;;;;;7.05;2.83;;;;;;;-148.88;100.00;77378.16;5036390;28;20441;-84
2023/04/27 03:08:54;;;;;;;6.78;2.83;;;;;;;-148.88;100.00;77376.13;5036101;28;20078;-84
2023/04/27 03:11:19;;;;;;;8.13;2.55;;;;;;;-148.88;100.00;77382.22;5054547;28;20036;-84
2023/04/27 03:13:45;;;;;;;6.78;2.85;;;;;;;-148.88;100.00;77378.16;5035955;28;20021;-85
2023/04/27 03:16:11;;;;;;;6.82;2.95;;;;;;;-148.88;100.00;77382.22;5037153;28;20028;-84
2023/04/27 03:18:37;;;;;;;6.38;2.90;;;;;;;-148.88;100.00;77394.41;5035904;28;20017;-85
2023/04/27 03:21:07;;;;;;;8.52;3.30;;;;;;;-148.88;100.00;77398.47;5036352;28;20055;-84
2023/04/27 03:23:33;;;;;;;12.70;4.18;;;;;;;-148.88;100.00;77402.53;5036601;28;20037;-86
2023/04/27 03:25:58;;;;;;;8.50;3.50;;;;;;;-148.88;100.00;77408.63;5036648;28;20036;-86
2023/04/27 03:28:23;;;;;;;8.88;3.00;;;;;;;-148.88;100.00;77414.72;5035693;28;20035;-85
2023/04/27 03:30:49;;;;;;;6.88;2.92;;;;;;;-148.88;100.00;77414.72;5053816;28;20079;-83
2023/04/27 03:33:15;;;;;;;8.85;3.17;;;;;;;-148.88;100.00;77426.91;5035871;28;20037;-89
2023/04/27 03:35:40;;;;;;;9.50;3.03;;;;;;;-148.88;100.00;77426.91;5035935;28;20020;-88
2023/04/27 03:38:06;;;;;;;7.72;3.05;;;;;;;-148.88;100.00;77435.03;5054196;28;20375;-89
2023/04/27 03:40:31;;;;;;;6.43;2.70;;;;;;;-148.88;100.00;77443.16;5053945;28;20029;-89
2023/04/27 03:42:56;;;;;;;10.00;3.10;;;;;;;-148.88;100.00;77447.22;5035810;28;20039;-88
2023/04/27 03:45:21;;;;;;;9.13;3.17;;;;;;;-148.88;100.00;77459.44;5053538;28;20368;-89
2023/04/27 03:47:47;;;;;;;7.97;3.47;;;;;;;-148.88;100.00;77457.41;5053616;28;20021;-90
2023/04/27 03:50:12;;;;;;;7.38;3.33;;;;;;;-148.88;100.00;77459.44;5053988;28;20506;-90
2023/04/27 03:52:37;;;;;;;7.38;2.85;;;;;;;-148.88;100.00;77463.50;5035705;28;20102;-85
2023/04/27 03:55:04;;;;;;;7.28;2.70;;;;;;;-148.88;100.00;77467.56;5054966;28;20033;-85
2023/04/27 03:57:29;;;;;;;8.00;3.55;;;;;;;-148.88;100.00;77471.63;5035397;28;20017;-86
2023/04/27 03:59:56;;;;;;;7.68;2.80;;;;;;;-148.88;100.00;77473.66;5035734;28;20459;-87
2023/04/27 04:02:22;;;;;;;8.27;2.45;;;;;;;-148.88;100.00;77479.75;5053171;28;20032;-87
2023/04/27 04:04:47;;;;;;;10.50;3.03;;;;;;;-148.88;100.00;77479.75;5036156;28;20330;-86
2023/04/27 04:07:12;;;;;;;9.00;2.45;;;;;;;-148.88;100.00;77489.91;5035494;28;20546;-87
2023/04/27 04:09:38;;;;;;;5.45;1.92;;;;;;;-148.88;100.00;77485.84;5035454;28;20110;-87
2023/04/27 04:12:03;;;;;;;8.07;2.58;;;;;;;-148.88;100.00;77487.88;5035242;28;20032;-86
2023/04/27 04:14:28;;;;;;;4.13;2.30;;;;;;;-148.88;100.00;77491.94;5035334;28;20151;-87
2023/04/27 04:16:54;;;;;;;8.18;2.80;;;;;;;-148.88;100.00;77487.88;5035041;28;20075;-87
2023/04/27 04:19:19;;;;;;;4.18;2.05;;;;;;;-148.88;100.00;77487.88;5035204;28;20037;-87
2023/04/27 04:21:44;;;;;;;5.75;2.65;;;;;;;-148.88;100.00;77491.94;5034906;28;20070;-87
2023/04/27 04:24:10;;;;;;;7.78;2.80;;;;;;;-148.88;100.00;77487.88;5053205;28;20391;-87
2023/04/27 04:26:36;;;;;;;7.35;2.85;;;;;;;-148.88;100.00;77491.94;5052846;28;20021;-87
2023/04/27 04:29:01;;;;;;;6.45;2.45;;;;;;;-148.88;100.00;77487.88;5052820;28;20399;-87
2023/04/27 04:31:26;;;;;;;7.60;3.00;;;;;;;-148.88;100.00;77485.84;5052620;28;20495;-87
2023/04/27 04:33:52;;;;;;;7.20;2.42;;;;;;;-148.88;100.00;77487.88;5035178;28;20479;-88
2023/04/27 04:36:17;;;;;;;6.97;2.85;;;;;;;-148.88;100.00;77487.88;5035355;28;20025;-89
2023/04/27 04:38:43;;;;;;;8.07;3.00;;;;;;;-148.88;100.00;77493.97;5034472;28;20021;-88
2023/04/27 04:41:09;;;;;;;8.38;2.65;;;;;;;-148.88;100.00;77496.00;5052990;28;20544;-87
2023/04/27 04:43:34;;;;;;;6.57;3.38;;;;;;;-148.88;100.00;77500.06;5052861;28;20043;-88
2023/04/27 04:45:59;;;;;;;10.30;3.40;;;;;;;-148.88;100.00;77500.06;5053133;28;20021;-87
2023/04/27 04:48:24;;;;;;;7.50;3.35;;;;;;;-148.88;100.00;77496.00;5053188;28;20021;-87
2023/04/27 04:50:50;;;;;;;10.27;3.95;;;;;;;-148.88;100.00;77487.88;5052846;28;20379;-88
2023/04/27 04:53:15;;;;;;;13.15;3.78;;;;;;;-148.88;100.00;77487.88;5052733;28;20033;-87
2023/04/27 04:55:40;;;;;;;10.07;4.35;;;;;;;-148.88;100.00;77487.88;5053140;28;20028;-87
2023/04/27 04:58:06;;;;;;;23.25;6.28;;;;;;;-148.88;100.00;77500.06;5052574;28;20036;-88
2023/04/27 05:00:31;;;;;;;9.07;3.63;;;;;;;-148.88;100.00;77483.81;5052878;28;20029;-87
2023/04/27 05:03:11;;;;;;;8.98;3.92;;;;;;;-148.88;100.00;77479.75;5035776;28;20056;-89
2023/04/27 05:05:37;;;;;;;9.50;4.10;;;;;;;-148.88;100.00;77475.69;5035519;28;20040;-85
2023/04/27 05:08:02;;;;;;;10.60;4.07;;;;;;;-148.88;100.00;77479.75;5035045;28;20116;-85
2023/04/27 05:10:28;;;;;;;7.72;3.60;;;;;;;-148.88;100.00;77475.69;5052684;28;20036;-86
2023/04/27 05:12:53;;;;;;;11.65;3.55;;;;;;;-148.88;100.00;77479.75;5052496;28;20106;-85
2023/04/27 05:15:18;;;;;;;8.93;4.07;;;;;;;-148.88;100.00;77475.69;5034518;28;20115;-88
2023/04/27 05:17:43;;;;;;;9.35;3.55;;;;;;;-148.88;100.00;77467.56;5052426;28;20104;-87
2023/04/27 05:20:09;;;;;;;9.68;3.55;;;;;;;-148.88;100.00;77463.50;5053252;28;20044;-87
2023/04/27 05:22:35;;;;;;;8.75;3.47;;;;;;;-148.88;100.00;77461.47;5052403;28;20025;-87
2023/04/27 05:25:00;;;;;;;6.43;3.10;;;;;;;-148.88;100.00;77455.38;5052272;28;20024;-87
2023/04/27 05:27:26;;;;;;;8.93;3.35;;;;;;;-148.88;100.00;77455.38;5052401;28;20103;-87
2023/04/27 05:29:51;;;;;;;9.95;3.83;;;;;;;-148.88;100.00;77449.25;5052445;28;20033;-87
2023/04/27 05:32:16;;;;;;;11.70;3.55;;;;;;;-148.88;100.00;77439.09;5052883;28;20021;-87
2023/04/27 05:34:43;;;;;;;7.35;3.30;;;;;;;-148.88;100.00;77435.03;5052555;28;20057;-88
2023/04/27 05:37:08;;;;;;;8.43;3.25;;;;;;;-148.88;100.00;77426.91;5035510;28;20021;-87
2023/04/27 05:39:34;;;;;;;7.65;3.70;;;;;;;-148.88;100.00;77412.69;5052468;28;20562;-87
2023/04/27 05:41:59;;;;;;;9.50;4.03;;;;;;;-148.88;100.00;77408.63;5036507;28;20056;-88
2023/04/27 05:44:27;;;;;;;6.38;3.33;;;;;;;-148.88;100.00;77402.53;5052621;28;20108;-88
2023/04/27 05:46:52;;;;;;;10.13;3.78;;;;;;;-148.88;100.00;77394.41;5052197;28;20103;-86
2023/04/27 05:49:17;;;;;;;11.43;3.80;;;;;;;-148.88;100.00;77394.41;5053038;28;20037;-90
2023/04/27 05:51:43;;;;;;;11.02;4.25;;;;;;;-148.88;100.00;77398.47;5056484;28;20432;-90
2023/04/27 05:54:08;;;;;;;10.48;4.38;;;;;;;-148.88;100.00;77382.22;5056414;28;20036;-90
2023/04/27 05:56:33;;;;;;;20.23;4.00;;;;;;;-148.88;100.00;77378.16;5057193;28;20052;-90
2023/04/27 05:58:59;;;;;;;7.72;3.80;;;;;;;-148.88;100.00;77361.88;5056098;28;20037;-90
2023/04/27 06:01:24;;;;;;;7.32;3.33;;;;;;;-148.88;100.00;77355.78;5056722;28;20466;-90
2023/04/27 06:03:49;;;;;;;9.18;3.20;;;;;;;-148.88;100.00;77349.69;5057434;28;20050;-90
2023/04/27 06:06:15;;;;;;;6.60;2.85;;;;;;;-148.88;100.00;77349.69;5056815;28;20025;-89
2023/04/27 06:08:40;;;;;;;10.75;3.30;;;;;;;-148.88;100.00;77337.50;5056525;28;20394;-90
2023/04/27 06:11:05;;;;;;;6.75;3.08;;;;;;;-148.88;100.00;77333.44;5056886;28;20025;-87
2023/04/27 06:13:32;;;;;;;9.02;3.03;;;;;;;-148.88;99.33;77313.13;5055538;28;20021;-87
2023/04/27 06:15:57;;;;;;;8.10;3.20;;;;;;;-148.88;99.04;77309.06;5055339;28;20110;-88
2023/04/27 06:18:22;;;;;;;8.00;2.83;;;;;;;-148.88;99.88;77305.00;5055072;28;20044;-87
2023/04/27 06:20:48;;;;;;;6.10;2.70;;;;;;;-148.88;99.95;77296.88;5055559;28;20420;-87
2023/04/27 06:23:13;;;;;;;27.15;3.90;;;;;;;-148.88;100.00;77288.72;5055257;28;20032;-88
2023/04/27 06:25:39;;;;;;;8.00;2.53;;;;;;;-148.88;100.00;77282.63;5037650;28;20501;-87
2023/04/27 06:28:04;;;;;;;8.27;2.78;;;;;;;-148.88;99.85;77276.53;5037192;28;20395;-87
2023/04/27 06:30:30;;;;;;;6.40;1.92;;;;;;;-148.88;96.92;77280.59;5054985;28;20060;-87
2023/04/27 06:32:55;;;;;;;7.45;2.40;;;;;;;-148.88;95.84;77264.34;5055169;28;20017;-87
2023/04/27 06:35:21;;;;;;;6.13;2.95;;;;;;;-148.88;95.45;77248.09;5054595;28;20031;-87
2023/04/27 06:37:48;;;;;;;10.15;2.03;;;;;;;-148.88;95.95;77235.91;5054611;28;20032;-87
2023/04/27 06:40:13;;;;;;;6.90;2.78;;;;;;;-148.88;96.38;77233.88;5054772;28;20047;-86
2023/04/27 06:42:39;;;;;;;6.68;3.00;;;;;;;-148.88;97.49;77211.53;5054542;28;20024;-89
2023/04/27 06:45:06;;;;;;;6.35;2.72;;;;;;;-148.88;97.56;77203.41;5036451;28;20021;-87
2023/04/27 06:47:31;;;;;;;6.78;2.25;;;;;;;-148.88;95.35;77195.25;5036853;28;20027;-87
2023/04/27 06:49:56;;;;;;;5.53;2.67;;;;;;;-148.88;97.10;77187.13;5054681;28;20020;-86
2023/04/27 06:52:21;;;;;;;6.95;2.65;;;;;;;-148.88;96.32;77174.94;5054759;28;20426;-87
2023/04/27 06:54:47;;;;;;;5.47;2.75;;;;;;;-148.88;95.86;77172.91;5054846;28;20033;-87
2023/04/27 06:57:12;;;;;;;8.18;2.83;;;;;;;-148.88;96.29;77170.88;5036820;28;20418;-87
2023/04/27 06:59:38;;;;;;;8.43;2.70;;;;;;;-148.88;98.50;77154.63;5054646;28;20032;-87
2023/04/27 07:02:13;;;;;;;5.43;2.60;;;;;;;-148.88;93.97;77138.38;5054671;28;20506;-89
2023/04/27 07:04:39;;;;;;;3.83;1.90;;;;;;;-148.88;93.60;77140.41;5056555;28;20016;-92
2023/04/27 07:07:04;;;;;;;4.80;2.17;;;;;;;-148.88;93.64;77142.44;5054741;28;20086;-88
2023/04/27 07:09:29;;;;;;;11.02;2.10;;;;;;;-148.88;91.34;77142.44;5054557;28;20025;-88
2023/04/27 07:11:56;;;;;;;5.82;2.13;;;;;;;-148.88;89.37;77128.22;5054633;28;20064;-89
2023/04/27 07:14:21;;;;;;;6.45;1.98;;;;;;;-148.88;89.82;77120.09;5054261;28;20025;-88
2023/04/27 07:16:46;;;;;;;10.02;2.03;;;;;;;-148.88;90.24;77118.06;5054390;28;20029;-86
2023/04/27 07:19:12;;;;;;;6.18;2.40;;;;;;;-148.88;90.29;77105.84;5054822;28;20033;-87
2023/04/27 07:21:37;;;;;;;6.47;1.95;;;;;;;-148.88;91.18;77093.66;5054606;28;20387;-87
2023/04/27 07:24:03;;;;;;;6.30;1.80;;;;;;;-148.88;91.37;77083.50;5053990;28;20024;-87
2023/04/27 07:26:29;;;;;;;5.75;2.33;;;;;;;-148.88;91.53;77069.28;5055812;28;20040;-87
2023/04/27 07:28:56;;;;;;;10.40;4.00;;;;;;;-148.88;91.68;77053.03;5036352;28;20084;-87
2023/04/27 07:31:21;;;;;;;4.47;1.80;;;;;;;-148.88;91.48;77053.03;5036218;28;20111;-86
2023/04/27 07:33:46;;;;;;;6.35;2.13;;;;;;;-148.88;87.75;77030.69;5053795;28;20492;-87
2023/04/27 07:36:12;;;;;;;3.67;1.73;;;;;;;-148.88;88.21;77034.75;5035792;28;20171;-87
2023/04/27 07:38:37;;;;;;;9.55;1.63;;;;;;;-148.88;89.43;77012.41;5053670;28;20013;-87
2023/04/27 07:41:06;;;;;;;4.50;1.63;;;;;;;-148.88;86.82;76992.06;5036476;28;20029;-86
2023/04/27 07:43:31;;;;;;;7.75;1.90;;;;;;;-148.88;87.94;76979.88;5035635;28;20029;-87
2023/04/27 07:45:57;;;;;;;4.25;1.95;;;;;;;-148.88;84.23;76975.81;5053698;28;20050;-87
2023/04/27 07:48:22;;;;;;;5.22;1.60;;;;;;;-148.88;84.87;76977.84;5053655;28;20475;-88
2023/04/27 07:50:48;;;;;;;7.43;2.20;;;;;;;-148.88;83.06;76979.88;5053452;28;20044;-87
2023/04/27 07:53:13;;;;;;;5.75;2.00;;;;;;;-148.88;81.93;76971.75;5053631;28;20052;-86
2023/04/27 07:55:39;;;;;;;5.60;1.92;;;;;;;-148.88;86.46;76977.84;5053779;28;20086;-87
2023/04/27 07:58:05;;;;;;;8.15;2.35;;;;;;;-148.88;87.37;76959.56;5053296;28;20029;-87
2023/04/27 08:00:30;;;;;;;5.38;1.70;;;;;;;-148.88;86.77;76918.94;5035476;28;20112;-86
2023/04/27 08:02:56;;;;;;;6.05;1.75;;;;;;;-148.88;81.95;76923.00;5053338;28;20048;-87
2023/04/27 08:05:22;;;;;;;5.57;2.15;;;;;;;-148.88;79.06;76890.50;5053368;28;20023;-87
2023/04/27 08:07:47;;;;;;;10.98;1.80;;;;;;;-148.88;78.75;76892.53;5053180;28;20029;-86
2023/04/27 08:10:14;;;;;;;8.85;2.30;;;;;;;-148.88;74.78;76927.06;5035594;28;20029;-86
2023/04/27 08:12:39;;;;;;;5.25;2.30;;;;;;;-148.88;75.15;76923.00;5052813;28;20025;-86
2023/04/27 08:15:10;;;;;;;5.57;1.65;;;;;;;-148.88;76.88;76908.78;5052947;28;20043;-86
2023/04/27 08:17:37;;;;;;;3.47;1.90;;;;;;;-148.88;72.19;76929.09;5053417;28;20057;-86
2023/04/27 08:20:03;;;;;;;4.68;2.00;;;;;;;-148.88;74.43;76894.56;5053240;28;20057;-87
2023/04/27 08:22:28;;;;;;;4.47;2.03;;;;;;;-148.88;73.09;76894.56;5052783;28;20393;-87
2023/04/27 08:24:53;;;;;;;5.10;2.50;;;;;;;-148.88;78.00;76849.84;5052708;28;20024;-86
2023/04/27 08:27:19;;;;;;;6.25;2.33;;;;;;;-148.88;75.33;76839.69;5052722;28;20091;-87
2023/04/27 08:29:46;;;;;;;6.35;2.30;;;;;;;-148.88;73.42;76833.59;5034987;28;20025;-86
2023/04/27 08:32:12;;;;;;;5.85;2.13;;;;;;;-148.88;72.85;76819.38;5034643;28;20021;-86
2023/04/27 08:34:37;;;;;;;5.60;2.20;;;;;;;-148.88;71.84;76817.34;5052767;28;20024;-87
2023/04/27 08:37:03;;;;;;;7.93;2.10;;;;;;;-148.88;71.36;76801.09;5034686;28;20024;-86
2023/04/27 08:39:28;;;;;;;7.03;2.75;;;;;;;-148.88;76.39;76764.53;5052440;28;20043;-87
2023/04/27 08:41:54;;;;;;;9.73;2.63;;;;;;;-148.88;71.53;76760.44;5052752;28;20105;-87
2023/04/27 08:44:19;;;;;;;5.65;1.92;;;;;;;-148.88;69.89;76760.44;5034653;28;20048;-86
2023/04/27 08:46:44;;;;;;;4.30;2.60;;;;;;;-148.88;77.75;76727.94;5053081;28;20028;-86
2023/04/27 08:49:10;;;;;;;11.38;3.55;;;;;;;-148.88;69.50;76719.81;5052456;28;20036;-86
2023/04/27 08:51:35;;;;;;;7.15;3.25;;;;;;;-148.88;64.97;76748.25;5052848;28;20105;-87
2023/04/27 08:54:01;;;;;;;6.10;3.53;;;;;;;-148.88;68.11;76740.13;5052431;28;20033;-86
2023/04/27 08:56:28;;;;;;;3.75;1.90;;;;;;;-148.88;68.06;76729.97;5052441;28;20032;-87
2023/04/27 08:58:56;;;;;;;4.60;1.90;;;;;;;-148.88;69.23;76699.50;5052733;28;20032;-87
2023/04/27 09:01:22;;;;;;;4.65;1.90;;;;;;;-148.88;67.85;76667.00;5052749;28;20040;-87
2023/04/27 09:03:48;;;;;;;7.85;3.65;;;;;;;-148.88;65.23;76646.69;5034623;28;20463;-87
2023/04/27 09:06:14;;;;;;;7.18;3.83;;;;;;;-148.88;67.24;76638.56;5052563;28;20056;-85
2023/04/27 09:08:47;;;;;;;7.53;2.45;;;;;;;-148.88;66.21;76624.34;5052503;28;20456;-87
2023/04/27 09:11:14;;;;;;;5.00;2.42;;;;;;;-148.88;67.05;76614.19;5053210;28;20020;-87
2023/04/27 09:13:43;;;;;;;5.47;3.47;;;;;;;-148.88;58.92;76593.84;5053788;28;20090;-87
2023/04/27 09:16:09;;;;;;;5.97;3.20;;;;;;;-148.88;59.46;76597.91;5052621;28;20028;-88
2023/04/27 09:18:36;;;;;;;8.13;2.70;;;;;;;-148.88;61.52;76557.28;5052193;28;20017;-88
2023/04/27 09:21:03;;;;;;;10.43;2.05;;;;;;;-148.88;59.09;76526.81;5052376;28;20079;-87
2023/04/27 09:23:37;;;;;;;8.10;3.47;;;;;;;-148.88;56.50;76528.84;5034228;28;20484;-87
2023/04/27 09:26:07;;;;;;;5.35;2.70;;;;;;;-148.88;57.92;76484.16;5054052;28;20036;-87
2023/04/27 09:28:33;;;;;;;5.80;1.88;;;;;;;-148.88;56.16;76480.09;5055995;28;20020;-87
2023/04/27 09:31:01;;;;;;;5.40;2.85;;;;;;;-148.88;53.25;76459.78;5055981;28;20536;-88
2023/04/27 09:33:28;;;;;;;4.00;2.67;;;;;;;-148.88;50.61;76419.16;5056014;28;20120;-88
2023/04/27 09:35:55;;;;;;;7.15;3.10;;;;;;;-148.88;51.64;76443.53;5037975;28;20025;-87
2023/04/27 09:38:22;;;;;;;7.50;3.00;;;;;;;-148.88;48.98;76406.94;5056270;28;20194;-88
2023/04/27 09:40:49;;;;;;;13.57;3.60;;;;;;;-148.88;50.71;76471.97;5056107;28;20025;-88
2023/04/27 09:43:15;;;;;;;4.38;3.25;;;;;;;-148.88;52.95;76478.06;5055747;28;20029;-88
2023/04/27 09:45:40;;;;;;;5.40;2.92;;;;;;;-148.88;54.59;76427.28;5055722;28;20029;-87
2023/04/27 09:48:06;;;;;;;5.45;3.28;;;;;;;-148.88;50.84;76362.25;5056005;28;20112;-88
2023/04/27 09:50:36;;;;;;;5.32;3.10;;;;;;;-148.88;46.43;76368.34;5055936;28;20036;-88
2023/04/27 09:53:05;;;;;;;8.07;3.05;;;;;;;-148.88;49.82;76376.47;5055812;28;20053;-87
2023/04/27 09:55:36;;;;;;;4.93;3.10;;;;;;;-148.88;49.40;76274.91;5056372;28;20386;-88
2023/04/27 09:58:01;;;;;;;6.53;3.15;;;;;;;-148.88;46.68;76329.75;5055850;28;20061;-87
2023/04/27 10:01:08;;;;;;;5.77;3.07;;;;;;;-148.88;48.41;76244.44;5055809;28;20068;-89
2023/04/27 10:03:52;;;;;;;5.47;2.80;;;;;;;-148.88;45.82;76226.16;5055841;28;20254;-88
2023/04/27 10:06:35;;;;;;;;;;;;;;;-148.88;44.87;76281.00;5056090;28;20109;-87
2023/04/27 10:09:05;;;;;;;5.40;2.85;;;;;;;-148.88;46.63;76232.25;5055665;28;19951;-88
2023/04/27 10:11:46;;;;;;;5.47;3.20;;;;;;;-148.88;47.50;76191.63;5055505;28;20027;-87
2023/04/27 10:14:17;;;;;;;4.07;2.78;;;;;;;-148.88;47.55;76226.16;5055030;28;20487;-87
2023/04/27 10:16:49;;;;;;;5.40;3.10;;;;;;;-148.88;47.18;76199.75;5055288;28;20021;-88
2023/04/27 10:19:15;;;;;;;7.10;3.08;;;;;;;-148.88;45.18;76195.69;5055156;28;20025;-88
2023/04/27 10:22:02;;;;;;;5.47;2.72;;;;;;;-148.88;42.90;76236.31;5055251;28;20251;-88
2023/04/27 10:24:48;;;;;;;4.43;2.80;;;;;;;-148.88;43.33;76187.56;5037353;28;20029;-87
2023/04/27 10:27:18;;;;;;;4.13;2.63;;;;;;;-148.88;41.33;76175.38;5055491;28;20031;-88
2023/04/27 10:29:45;;;;;;;4.25;2.67;;;;;;;-148.88;40.15;76163.19;5055105;28;20112;-89
2023/04/27 10:32:17;;;;;;;4.88;2.88;;;;;;;-148.88;40.14;76167.25;5055333;28;20021;-87
2023/04/27 10:34:44;;;;;;;7.32;3.20;;;;;;;-148.88;41.02;76151.00;5055115;28;20025;-88
2023/04/27 10:37:10;;;;;;;3.92;2.50;;;;;;;-148.88;37.05;76142.88;5054382;28;20475;-88
2023/04/27 10:39:41;;;;;;;7.20;2.75;;;;;;;-148.88;40.36;76159.13;5054864;28;20024;-88
2023/04/27 10:42:07;;;;;;;4.80;2.70;;;;;;;-148.88;40.22;76163.19;5054876;28;20055;-88
2023/04/27 10:44:34;;;;;;;5.15;2.90;;;;;;;-148.88;39.17;76167.25;5054599;28;20096;-88
2023/04/27 10:47:10;;;;;;;6.60;3.28;;;;;;;-148.88;40.89;76114.41;5054955;28;20371;-88
2023/04/27 10:49:37;;;;;;;4.18;3.08;;;;;;;-148.88;38.73;76096.13;5055013;28;20084;-89
2023/04/27 10:52:03;;;;;;;5.78;3.00;;;;;;;-148.88;38.69;76077.84;5037559;28;20021;-88
2023/04/27 10:54:30;;;;;;;5.00;3.08;;;;;;;-148.88;35.91;76090.03;5054675;28;20148;-88
2023/04/27 10:57:09;;;;;;;6.20;3.10;;;;;;;-148.88;36.13;76090.03;5054566;28;20108;-88
2023/04/27 10:59:46;;;;;;;4.30;3.13;;;;;;;-148.88;37.20;76081.91;5056634;28;20028;-88
2023/04/27 11:02:11;;;;;;;5.00;3.50;;;;;;;-148.88;38.09;76098.16;5054837;28;20036;-88
2023/04/27 11:04:40;;;;;;;4.75;3.30;;;;;;;-148.88;38.96;76047.38;5054997;28;20025;-89
2023/04/27 11:07:09;;;;;;;4.93;3.15;;;;;;;-148.88;36.13;75986.44;5055107;28;20017;-88
2023/04/27 11:09:39;;;;;;;5.35;3.10;;;;;;;-148.88;35.45;76043.31;5054460;28;20036;-88